sensor_id;sensor_type;location;lat;lon;timestamp;temperature;humidity
40654;DHT22;26344;45.532;9.232;2024-01-16T00:01:54;11.40;99.90
40654;DHT22;26344;45.532;9.232;2024-01-16T00:04:19;9.10;99.90
40654;DHT22;26344;45.532;9.232;2024-01-16T00:06:45;10.50;99.90
40654;DHT22;26344;45.532;9.232;2024-01-16T00:09:10;9.30;99.90
40654;DHT22;26344;45.532;9.232;2024-01-16T00:11:42;10.60;99.90
40654;DHT22;26344;45.532;9.232;2024-01-16T00:14:08;9.50;99.90
40654;DHT22;26344;45.532;9.232;2024-01-16T00:16:33;11.00;99.90
40654;DHT22;26344;45.532;9.232;2024-01-16T00:18:59;9.40;99.90
40654;DHT22;26344;45.532;9.232;2024-01-16T00:21:24;9.30;99.90
40654;DHT22;26344;45.532;9.232;2024-01-16T00:23:50;9.10;99.90
40654;DHT22;26344;45.532;9.232;2024-01-16T00:26:21;9.30;99.90
40654;DHT22;26344;45.532;9.232;2024-01-16T00:28:47;9.30;99.90
40654;DHT22;26344;45.532;9.232;2024-01-16T00:31:13;9.40;99.90
40654;DHT22;26344;45.532;9.232;2024-01-16T00:33:38;9.20;99.90
40654;DHT22;26344;45.532;9.232;2024-01-16T00:36:05;9.20;99.90
40654;DHT22;26344;45.532;9.232;2024-01-16T00:38:32;9.40;99.90
40654;DHT22;26344;45.532;9.232;2024-01-16T00:40:58;9.30;99.90
40654;DHT22;26344;45.532;9.232;2024-01-16T00:43:23;6.70;99.90
40654;DHT22;26344;45.532;9.232;2024-01-16T00:45:49;9.40;99.90
40654;DHT22;26344;45.532;9.232;2024-01-16T00:48:14;9.20;99.90
40654;DHT22;26344;45.532;9.232;2024-01-16T00:50:40;9.20;99.90
40654;DHT22;26344;45.532;9.232;2024-01-16T00:53:05;9.30;99.90
40654;DHT22;26344;45.532;9.232;2024-01-16T00:55:30;9.30;99.90
40654;DHT22;26344;45.532;9.232;2024-01-16T00:57:56;10.30;99.90
40654;DHT22;26344;45.532;9.232;2024-01-16T01:00:21;10.30;99.90
40654;DHT22;26344;45.532;9.232;2024-01-16T01:02:47;9.20;99.90
40654;DHT22;26344;45.532;9.232;2024-01-16T01:05:12;9.70;99.90
40654;DHT22;26344;45.532;9.232;2024-01-16T01:07:38;9.20;99.90
40654;DHT22;26344;45.532;9.232;2024-01-16T01:10:03;10.30;99.90
40654;DHT22;26344;45.532;9.232;2024-01-16T01:12:29;9.00;99.90
40654;DHT22;26344;45.532;9.232;2024-01-16T01:14:54;9.30;99.90
40654;DHT22;26344;45.532;9.232;2024-01-16T01:17:20;9.10;99.90
40654;DHT22;26344;45.532;9.232;2024-01-16T01:19:45;9.10;99.90
40654;DHT22;26344;45.532;9.232;2024-01-16T01:22:11;9.10;99.90
40654;DHT22;26344;45.532;9.232;2024-01-16T01:27:03;8.90;99.90
40654;DHT22;26344;45.532;9.232;2024-01-16T01:29:29;8.90;99.90
40654;DHT22;26344;45.532;9.232;2024-01-16T01:31:54;8.90;99.90
40654;DHT22;26344;45.532;9.232;2024-01-16T01:34:20;8.80;99.90
40654;DHT22;26344;45.532;9.232;2024-01-16T01:36:45;9.40;99.90
40654;DHT22;26344;45.532;9.232;2024-01-16T01:39:11;9.60;99.90
40654;DHT22;26344;45.532;9.232;2024-01-16T01:41:37;9.40;99.90
40654;DHT22;26344;45.532;9.232;2024-01-16T01:44:02;9.50;99.90
40654;DHT22;26344;45.532;9.232;2024-01-16T01:46:28;8.90;99.90
40654;DHT22;26344;45.532;9.232;2024-01-16T01:48:54;8.80;99.90
40654;DHT22;26344;45.532;9.232;2024-01-16T01:51:20;9.40;99.90
40654;DHT22;26344;45.532;9.232;2024-01-16T01:53:47;8.80;99.90
40654;DHT22;26344;45.532;9.232;2024-01-16T01:56:19;8.80;99.90
40654;DHT22;26344;45.532;9.232;2024-01-16T01:58:46;8.90;99.90
40654;DHT22;26344;45.532;9.232;2024-01-16T02:01:13;10.10;99.90
40654;DHT22;26344;45.532;9.232;2024-01-16T02:03:40;9.40;99.90
40654;DHT22;26344;45.532;9.232;2024-01-16T02:06:05;10.00;99.90
40654;DHT22;26344;45.532;9.232;2024-01-16T02:08:31;8.90;99.90
40654;DHT22;26344;45.532;9.232;2024-01-16T02:10:57;9.60;99.90
40654;DHT22;26344;45.532;9.232;2024-01-16T02:13:22;8.70;99.90
40654;DHT22;26344;45.532;9.232;2024-01-16T02:15:49;8.70;99.90
40654;DHT22;26344;45.532;9.232;2024-01-16T02:18:15;9.00;99.90
40654;DHT22;26344;45.532;9.232;2024-01-16T02:20:41;8.50;99.90
40654;DHT22;26344;45.532;9.232;2024-01-16T02:23:07;8.60;99.90
40654;DHT22;26344;45.532;9.232;2024-01-16T02:25:32;8.50;99.90
40654;DHT22;26344;45.532;9.232;2024-01-16T02:27:59;10.10;99.90
40654;DHT22;26344;45.532;9.232;2024-01-16T02:30:25;10.60;99.90
40654;DHT22;26344;45.532;9.232;2024-01-16T02:32:51;9.00;99.90
40654;DHT22;26344;45.532;9.232;2024-01-16T02:35:16;8.60;99.90
40654;DHT22;26344;45.532;9.232;2024-01-16T02:37:43;10.00;99.90
40654;DHT22;26344;45.532;9.232;2024-01-16T02:40:09;7.40;99.90
40654;DHT22;26344;45.532;9.232;2024-01-16T02:42:35;8.70;99.90
40654;DHT22;26344;45.532;9.232;2024-01-16T02:45:02;8.60;99.90
40654;DHT22;26344;45.532;9.232;2024-01-16T02:47:29;8.60;99.90
40654;DHT22;26344;45.532;9.232;2024-01-16T02:49:54;10.20;99.90
40654;DHT22;26344;45.532;9.232;2024-01-16T02:52:20;8.60;99.90
40654;DHT22;26344;45.532;9.232;2024-01-16T02:54:45;8.60;99.90
40654;DHT22;26344;45.532;9.232;2024-01-16T02:57:11;8.70;99.90
40654;DHT22;26344;45.532;9.232;2024-01-16T02:59:36;8.60;99.90
40654;DHT22;26344;45.532;9.232;2024-01-16T03:02:02;9.30;99.90
40654;DHT22;26344;45.532;9.232;2024-01-16T03:04:28;8.60;99.90
40654;DHT22;26344;45.532;9.232;2024-01-16T03:06:53;8.60;99.90
40654;DHT22;26344;45.532;9.232;2024-01-16T03:09:19;8.30;99.90
40654;DHT22;26344;45.532;9.232;2024-01-16T03:11:44;8.60;99.90
40654;DHT22;26344;45.532;9.232;2024-01-16T03:14:09;8.60;99.90
40654;DHT22;26344;45.532;9.232;2024-01-16T03:16:35;8.50;99.90
40654;DHT22;26344;45.532;9.232;2024-01-16T03:19:00;11.10;99.90
40654;DHT22;26344;45.532;9.232;2024-01-16T03:21:26;8.60;99.90
40654;DHT22;26344;45.532;9.232;2024-01-16T03:23:51;9.20;99.90
40654;DHT22;26344;45.532;9.232;2024-01-16T03:26:17;8.60;99.90
40654;DHT22;26344;45.532;9.232;2024-01-16T03:28:42;8.60;99.90
40654;DHT22;26344;45.532;9.232;2024-01-16T03:31:08;8.50;99.90
40654;DHT22;26344;45.532;9.232;2024-01-16T03:33:34;8.40;99.90
40654;DHT22;26344;45.532;9.232;2024-01-16T03:36:00;8.50;99.90
40654;DHT22;26344;45.532;9.232;2024-01-16T03:38:25;10.40;99.90
40654;DHT22;26344;45.532;9.232;2024-01-16T03:40:51;8.50;99.90
40654;DHT22;26344;45.532;9.232;2024-01-16T03:43:17;8.40;99.90
40654;DHT22;26344;45.532;9.232;2024-01-16T03:45:42;9.10;99.90
40654;DHT22;26344;45.532;9.232;2024-01-16T03:48:09;8.80;99.90
40654;DHT22;26344;45.532;9.232;2024-01-16T03:50:34;8.70;99.90
40654;DHT22;26344;45.532;9.232;2024-01-16T03:53:01;8.50;99.90
40654;DHT22;26344;45.532;9.232;2024-01-16T03:55:27;8.50;99.90
40654;DHT22;26344;45.532;9.232;2024-01-16T03:57:53;8.20;99.90
40654;DHT22;26344;45.532;9.232;2024-01-16T04:00:19;9.30;99.90
40654;DHT22;26344;45.532;9.232;2024-01-16T04:02:44;8.50;99.90
40654;DHT22;26344;45.532;9.232;2024-01-16T04:05:10;8.50;99.90
40654;DHT22;26344;45.532;9.232;2024-01-16T04:07:35;8.50;99.90
40654;DHT22;26344;45.532;9.232;2024-01-16T04:10:00;8.20;99.90
40654;DHT22;26344;45.532;9.232;2024-01-16T04:12:26;8.20;99.90
40654;DHT22;26344;45.532;9.232;2024-01-16T04:14:52;10.70;99.90
40654;DHT22;26344;45.532;9.232;2024-01-16T04:17:17;9.10;99.90
40654;DHT22;26344;45.532;9.232;2024-01-16T04:19:43;10.70;99.90
40654;DHT22;26344;45.532;9.232;2024-01-16T04:22:08;9.90;99.90
40654;DHT22;26344;45.532;9.232;2024-01-16T04:24:34;8.60;99.90
40654;DHT22;26344;45.532;9.232;2024-01-16T04:26:59;8.20;99.90
40654;DHT22;26344;45.532;9.232;2024-01-16T04:29:25;8.60;99.90
40654;DHT22;26344;45.532;9.232;2024-01-16T04:31:50;8.60;99.90
40654;DHT22;26344;45.532;9.232;2024-01-16T04:34:16;8.20;99.90
40654;DHT22;26344;45.532;9.232;2024-01-16T04:36:41;8.50;99.90
40654;DHT22;26344;45.532;9.232;2024-01-16T04:39:07;8.50;99.90
40654;DHT22;26344;45.532;9.232;2024-01-16T04:41:34;10.20;99.90
40654;DHT22;26344;45.532;9.232;2024-01-16T04:43:59;8.50;99.90
40654;DHT22;26344;45.532;9.232;2024-01-16T04:46:25;8.50;99.90
40654;DHT22;26344;45.532;9.232;2024-01-16T04:48:51;8.40;99.90
40654;DHT22;26344;45.532;9.232;2024-01-16T04:51:16;8.40;99.90
40654;DHT22;26344;45.532;9.232;2024-01-16T04:53:42;8.30;99.90
40654;DHT22;26344;45.532;9.232;2024-01-16T04:56:07;8.50;99.90
40654;DHT22;26344;45.532;9.232;2024-01-16T04:58:33;8.50;99.90
40654;DHT22;26344;45.532;9.232;2024-01-16T05:00:58;8.40;99.90
40654;DHT22;26344;45.532;9.232;2024-01-16T05:03:24;8.60;99.90
40654;DHT22;26344;45.532;9.232;2024-01-16T05:05:49;8.50;99.90
40654;DHT22;26344;45.532;9.232;2024-01-16T05:08:15;10.60;99.90
40654;DHT22;26344;45.532;9.232;2024-01-16T05:10:40;10.60;99.90
40654;DHT22;26344;45.532;9.232;2024-01-16T05:13:06;8.50;99.90
40654;DHT22;26344;45.532;9.232;2024-01-16T05:15:31;8.40;99.90
40654;DHT22;26344;45.532;9.232;2024-01-16T05:17:57;8.60;99.90
40654;DHT22;26344;45.532;9.232;2024-01-16T05:20:22;10.10;99.90
40654;DHT22;26344;45.532;9.232;2024-01-16T05:22:48;8.30;99.90
40654;DHT22;26344;45.532;9.232;2024-01-16T05:25:13;8.90;99.90
40654;DHT22;26344;45.532;9.232;2024-01-16T05:27:39;8.50;99.90
40654;DHT22;26344;45.532;9.232;2024-01-16T05:30:04;8.50;99.90
40654;DHT22;26344;45.532;9.232;2024-01-16T05:32:30;8.50;99.90
40654;DHT22;26344;45.532;9.232;2024-01-16T05:34:55;8.60;99.90
40654;DHT22;26344;45.532;9.232;2024-01-16T05:37:21;8.50;99.90
40654;DHT22;26344;45.532;9.232;2024-01-16T05:39:46;8.70;99.90
40654;DHT22;26344;45.532;9.232;2024-01-16T05:42:12;8.90;99.90
40654;DHT22;26344;45.532;9.232;2024-01-16T05:44:37;8.80;99.90
40654;DHT22;26344;45.532;9.232;2024-01-16T05:47:03;11.50;99.90
40654;DHT22;26344;45.532;9.232;2024-01-16T05:49:29;8.60;99.90
40654;DHT22;26344;45.532;9.232;2024-01-16T05:51:55;8.90;99.90
40654;DHT22;26344;45.532;9.232;2024-01-16T05:54:20;8.60;99.90
40654;DHT22;26344;45.532;9.232;2024-01-16T05:56:47;10.00;99.90
40654;DHT22;26344;45.532;9.232;2024-01-16T05:59:12;8.50;99.90
40654;DHT22;26344;45.532;9.232;2024-01-16T06:01:38;8.50;99.90
40654;DHT22;26344;45.532;9.232;2024-01-16T06:04:03;8.50;99.90
40654;DHT22;26344;45.532;9.232;2024-01-16T06:06:29;8.50;99.90
40654;DHT22;26344;45.532;9.232;2024-01-16T06:08:54;8.50;99.90
40654;DHT22;26344;45.532;9.232;2024-01-16T06:11:29;9.20;99.90
40654;DHT22;26344;45.532;9.232;2024-01-16T06:13:54;8.50;99.90
40654;DHT22;26344;45.532;9.232;2024-01-16T06:16:20;8.60;99.90
40654;DHT22;26344;45.532;9.232;2024-01-16T06:18:45;8.50;99.90
40654;DHT22;26344;45.532;9.232;2024-01-16T06:21:11;8.60;99.90
40654;DHT22;26344;45.532;9.232;2024-01-16T06:23:37;8.60;99.90
40654;DHT22;26344;45.532;9.232;2024-01-16T06:26:03;8.60;99.90
40654;DHT22;26344;45.532;9.232;2024-01-16T06:28:28;8.70;99.90
40654;DHT22;26344;45.532;9.232;2024-01-16T06:30:57;8.70;99.90
40654;DHT22;26344;45.532;9.232;2024-01-16T06:33:23;8.90;99.90
40654;DHT22;26344;45.532;9.232;2024-01-16T06:35:49;9.00;99.90
40654;DHT22;26344;45.532;9.232;2024-01-16T06:38:14;9.00;99.90
40654;DHT22;26344;45.532;9.232;2024-01-16T06:40:40;9.50;99.90
40654;DHT22;26344;45.532;9.232;2024-01-16T06:43:06;9.10;99.90
40654;DHT22;26344;45.532;9.232;2024-01-16T06:45:37;10.50;99.90
40654;DHT22;26344;45.532;9.232;2024-01-16T06:57:18;9.20;99.90
40654;DHT22;26344;45.532;9.232;2024-01-16T06:59:45;9.10;99.90
40654;DHT22;26344;45.532;9.232;2024-01-16T07:02:14;9.20;99.90
40654;DHT22;26344;45.532;9.232;2024-01-16T07:04:40;9.10;99.90
40654;DHT22;26344;45.532;9.232;2024-01-16T07:07:05;9.10;99.90
40654;DHT22;26344;45.532;9.232;2024-01-16T07:09:31;9.00;99.90
40654;DHT22;26344;45.532;9.232;2024-01-16T07:11:56;8.80;99.90
40654;DHT22;26344;45.532;9.232;2024-01-16T07:17:25;9.10;99.90
40654;DHT22;26344;45.532;9.232;2024-01-16T07:20:09;9.00;99.90
40654;DHT22;26344;45.532;9.232;2024-01-16T07:22:34;8.90;99.90
40654;DHT22;26344;45.532;9.232;2024-01-16T07:25:00;8.80;99.90
40654;DHT22;26344;45.532;9.232;2024-01-16T07:27:25;9.00;99.90
40654;DHT22;26344;45.532;9.232;2024-01-16T07:29:51;8.70;99.90
40654;DHT22;26344;45.532;9.232;2024-01-16T07:32:16;8.90;99.90
40654;DHT22;26344;45.532;9.232;2024-01-16T07:34:42;10.80;99.90
40654;DHT22;26344;45.532;9.232;2024-01-16T07:37:08;11.30;99.90
40654;DHT22;26344;45.532;9.232;2024-01-16T07:39:36;9.00;99.90
40654;DHT22;26344;45.532;9.232;2024-01-16T07:42:02;9.00;99.90
40654;DHT22;26344;45.532;9.232;2024-01-16T07:44:27;9.00;99.90
40654;DHT22;26344;45.532;9.232;2024-01-16T07:46:53;9.00;99.90
40654;DHT22;26344;45.532;9.232;2024-01-16T07:49:18;9.10;99.90
40654;DHT22;26344;45.532;9.232;2024-01-16T07:51:45;9.00;99.90
40654;DHT22;26344;45.532;9.232;2024-01-16T07:54:10;9.00;99.90
40654;DHT22;26344;45.532;9.232;2024-01-16T07:56:36;9.00;99.90
40654;DHT22;26344;45.532;9.232;2024-01-16T07:59:02;8.80;99.90
40654;DHT22;26344;45.532;9.232;2024-01-16T08:01:28;9.00;99.90
40654;DHT22;26344;45.532;9.232;2024-01-16T08:03:57;8.90;99.90
40654;DHT22;26344;45.532;9.232;2024-01-16T08:06:22;9.00;99.90
40654;DHT22;26344;45.532;9.232;2024-01-16T08:08:48;12.60;99.90
40654;DHT22;26344;45.532;9.232;2024-01-16T08:11:14;9.10;99.90
40654;DHT22;26344;45.532;9.232;2024-01-16T08:13:40;11.80;99.90
40654;DHT22;26344;45.532;9.232;2024-01-16T08:16:05;9.10;99.90
40654;DHT22;26344;45.532;9.232;2024-01-16T08:18:31;9.20;99.90
40654;DHT22;26344;45.532;9.232;2024-01-16T08:21:02;9.10;99.90
40654;DHT22;26344;45.532;9.232;2024-01-16T08:23:28;9.20;99.90
40654;DHT22;26344;45.532;9.232;2024-01-16T08:25:54;9.20;99.90
40654;DHT22;26344;45.532;9.232;2024-01-16T08:28:19;9.20;99.90
40654;DHT22;26344;45.532;9.232;2024-01-16T08:30:45;9.20;99.90
40654;DHT22;26344;45.532;9.232;2024-01-16T08:33:11;9.20;99.90
40654;DHT22;26344;45.532;9.232;2024-01-16T08:35:40;9.30;99.90
40654;DHT22;26344;45.532;9.232;2024-01-16T08:38:05;9.40;99.90
40654;DHT22;26344;45.532;9.232;2024-01-16T08:40:31;9.40;99.90
40654;DHT22;26344;45.532;9.232;2024-01-16T08:42:56;9.50;99.90
40654;DHT22;26344;45.532;9.232;2024-01-16T08:45:22;9.40;99.90
40654;DHT22;26344;45.532;9.232;2024-01-16T08:47:48;9.50;99.90
40654;DHT22;26344;45.532;9.232;2024-01-16T08:50:16;9.60;99.90
40654;DHT22;26344;45.532;9.232;2024-01-16T08:52:42;9.70;99.90
40654;DHT22;26344;45.532;9.232;2024-01-16T08:55:07;9.80;99.90
40654;DHT22;26344;45.532;9.232;2024-01-16T08:57:34;13.00;99.90
40654;DHT22;26344;45.532;9.232;2024-01-16T09:00:00;9.90;99.90
40654;DHT22;26344;45.532;9.232;2024-01-16T09:02:25;10.00;99.90
40654;DHT22;26344;45.532;9.232;2024-01-16T09:04:54;10.10;99.90
40654;DHT22;26344;45.532;9.232;2024-01-16T09:07:20;10.00;99.90
40654;DHT22;26344;45.532;9.232;2024-01-16T09:09:45;10.20;99.90
40654;DHT22;26344;45.532;9.232;2024-01-16T09:12:11;10.20;99.90
40654;DHT22;26344;45.532;9.232;2024-01-16T09:14:37;10.30;99.90
40654;DHT22;26344;45.532;9.232;2024-01-16T09:17:02;10.30;99.90
40654;DHT22;26344;45.532;9.232;2024-01-16T09:19:28;10.40;99.90
40654;DHT22;26344;45.532;9.232;2024-01-16T09:21:55;10.50;99.90
40654;DHT22;26344;45.532;9.232;2024-01-16T09:24:20;10.50;99.90
40654;DHT22;26344;45.532;9.232;2024-01-16T09:26:46;10.50;99.90
40654;DHT22;26344;45.532;9.232;2024-01-16T09:29:11;12.70;99.90
40654;DHT22;26344;45.532;9.232;2024-01-16T09:31:37;10.70;99.90
40654;DHT22;26344;45.532;9.232;2024-01-16T09:34:03;10.70;99.90
40654;DHT22;26344;45.532;9.232;2024-01-16T09:39:29;10.70;99.90
40654;DHT22;26344;45.532;9.232;2024-01-16T09:42:08;10.90;99.90
40654;DHT22;26344;45.532;9.232;2024-01-16T09:44:34;14.30;99.90
40654;DHT22;26344;45.532;9.232;2024-01-16T09:47:00;11.10;99.90
40654;DHT22;26344;45.532;9.232;2024-01-16T09:49:26;11.20;99.90
40654;DHT22;26344;45.532;9.232;2024-01-16T09:52:01;11.20;99.90
40654;DHT22;26344;45.532;9.232;2024-01-16T09:54:30;11.10;99.90
40654;DHT22;26344;45.532;9.232;2024-01-16T09:56:58;14.20;99.90
40654;DHT22;26344;45.532;9.232;2024-01-16T09:59:24;12.90;99.90
40654;DHT22;26344;45.532;9.232;2024-01-16T10:01:50;14.40;99.90
40654;DHT22;26344;45.532;9.232;2024-01-16T10:04:16;15.90;98.30
40654;DHT22;26344;45.532;9.232;2024-01-16T10:06:42;17.40;97.40
40654;DHT22;26344;45.532;9.232;2024-01-16T10:09:10;18.50;94.30
40654;DHT22;26344;45.532;9.232;2024-01-16T10:11:37;18.70;93.20
40654;DHT22;26344;45.532;9.232;2024-01-16T10:14:03;19.20;91.90
40654;DHT22;26344;45.532;9.232;2024-01-16T10:19:16;19.60;89.90
40654;DHT22;26344;45.532;9.232;2024-01-16T10:21:41;18.70;89.10
40654;DHT22;26344;45.532;9.232;2024-01-16T10:24:16;18.20;89.40
40654;DHT22;26344;45.532;9.232;2024-01-16T10:29:35;17.60;90.10
40654;DHT22;26344;45.532;9.232;2024-01-16T10:32:01;17.20;90.30
40654;DHT22;26344;45.532;9.232;2024-01-16T10:34:27;17.10;90.30
40654;DHT22;26344;45.532;9.232;2024-01-16T10:36:58;17.00;90.20
40654;DHT22;26344;45.532;9.232;2024-01-16T10:39:23;17.10;90.30
40654;DHT22;26344;45.532;9.232;2024-01-16T10:41:56;17.10;90.10
40654;DHT22;26344;45.532;9.232;2024-01-16T10:44:21;17.20;90.20
40654;DHT22;26344;45.532;9.232;2024-01-16T10:46:47;17.30;89.90
40654;DHT22;26344;45.532;9.232;2024-01-16T10:49:13;18.10;90.30
40654;DHT22;26344;45.532;9.232;2024-01-16T10:51:38;19.10;91.00
40654;DHT22;26344;45.532;9.232;2024-01-16T10:54:07;21.30;86.40
40654;DHT22;26344;45.532;9.232;2024-01-16T10:56:36;22.30;83.00
40654;DHT22;26344;45.532;9.232;2024-01-16T11:01:36;26.30;75.10
40654;DHT22;26344;45.532;9.232;2024-01-16T11:04:02;27.60;70.90
40654;DHT22;26344;45.532;9.232;2024-01-16T11:06:28;29.50;66.60
40654;DHT22;26344;45.532;9.232;2024-01-16T11:08:54;31.00;61.70
40654;DHT22;26344;45.532;9.232;2024-01-16T11:11:21;32.70;60.20
40654;DHT22;26344;45.532;9.232;2024-01-16T11:13:47;33.50;57.20
40654;DHT22;26344;45.532;9.232;2024-01-16T11:16:14;32.30;55.80
40654;DHT22;26344;45.532;9.232;2024-01-16T11:18:39;31.10;56.40
40654;DHT22;26344;45.532;9.232;2024-01-16T11:21:07;31.10;55.90
40654;DHT22;26344;45.532;9.232;2024-01-16T11:23:33;30.70;55.40
40654;DHT22;26344;45.532;9.232;2024-01-16T11:26:00;29.40;54.50
40654;DHT22;26344;45.532;9.232;2024-01-16T11:28:28;32.30;55.90
40654;DHT22;26344;45.532;9.232;2024-01-16T11:30:57;32.00;53.90
40654;DHT22;26344;45.532;9.232;2024-01-16T11:35:57;32.90;52.70
40654;DHT22;26344;45.532;9.232;2024-01-16T11:38:23;34.10;52.90
40654;DHT22;26344;45.532;9.232;2024-01-16T11:40:55;34.80;51.70
40654;DHT22;26344;45.532;9.232;2024-01-16T11:45:58;36.60;50.50
40654;DHT22;26344;45.532;9.232;2024-01-16T11:48:24;37.00;49.60
40654;DHT22;26344;45.532;9.232;2024-01-16T11:50:50;36.50;48.70
40654;DHT22;26344;45.532;9.232;2024-01-16T11:53:37;36.50;48.60
40654;DHT22;26344;45.532;9.232;2024-01-16T11:58:45;37.10;48.40
40654;DHT22;26344;45.532;9.232;2024-01-16T12:01:11;37.60;47.70
40654;DHT22;26344;45.532;9.232;2024-01-16T12:03:37;38.10;47.60
40654;DHT22;26344;45.532;9.232;2024-01-16T12:06:02;38.10;47.10
40654;DHT22;26344;45.532;9.232;2024-01-16T12:08:31;38.40;46.80
40654;DHT22;26344;45.532;9.232;2024-01-16T12:10:57;38.40;46.30
40654;DHT22;26344;45.532;9.232;2024-01-16T12:13:23;38.50;46.00
40654;DHT22;26344;45.532;9.232;2024-01-16T12:15:58;38.70;46.20
40654;DHT22;26344;45.532;9.232;2024-01-16T12:18:24;38.90;45.60
40654;DHT22;26344;45.532;9.232;2024-01-16T12:20:50;38.60;45.40
40654;DHT22;26344;45.532;9.232;2024-01-16T12:23:15;38.80;45.30
40654;DHT22;26344;45.532;9.232;2024-01-16T12:25:41;41.40;46.90
40654;DHT22;26344;45.532;9.232;2024-01-16T12:28:07;38.60;45.20
40654;DHT22;26344;45.532;9.232;2024-01-16T12:30:36;38.50;44.70
40654;DHT22;26344;45.532;9.232;2024-01-16T12:33:05;38.20;43.90
40654;DHT22;26344;45.532;9.232;2024-01-16T12:38:04;37.30;44.20
40654;DHT22;26344;45.532;9.232;2024-01-16T12:40:32;37.00;43.80
40654;DHT22;26344;45.532;9.232;2024-01-16T12:42:58;36.80;44.10
40654;DHT22;26344;45.532;9.232;2024-01-16T12:45:27;36.60;44.90
40654;DHT22;26344;45.532;9.232;2024-01-16T12:47:54;36.20;43.50
40654;DHT22;26344;45.532;9.232;2024-01-16T12:50:24;35.80;44.10
40654;DHT22;26344;45.532;9.232;2024-01-16T12:52:50;35.60;44.10
40654;DHT22;26344;45.532;9.232;2024-01-16T12:55:16;35.50;44.40
40654;DHT22;26344;45.532;9.232;2024-01-16T12:57:44;35.10;44.40
40654;DHT22;26344;45.532;9.232;2024-01-16T13:00:26;35.30;45.10
40654;DHT22;26344;45.532;9.232;2024-01-16T13:02:52;35.60;45.50
40654;DHT22;26344;45.532;9.232;2024-01-16T13:05:17;36.00;45.50
40654;DHT22;26344;45.532;9.232;2024-01-16T13:07:43;36.70;45.60
40654;DHT22;26344;45.532;9.232;2024-01-16T13:10:09;37.20;45.20
40654;DHT22;26344;45.532;9.232;2024-01-16T13:12:37;37.10;44.90
40654;DHT22;26344;45.532;9.232;2024-01-16T13:15:03;38.10;45.70
40654;DHT22;26344;45.532;9.232;2024-01-16T13:17:31;37.20;44.70
40654;DHT22;26344;45.532;9.232;2024-01-16T13:19:57;37.10;44.60
40654;DHT22;26344;45.532;9.232;2024-01-16T13:22:22;37.10;44.60
40654;DHT22;26344;45.532;9.232;2024-01-16T13:24:48;37.20;44.70
40654;DHT22;26344;45.532;9.232;2024-01-16T13:27:14;36.30;43.90
40654;DHT22;26344;45.532;9.232;2024-01-16T13:29:39;37.40;44.40
40654;DHT22;26344;45.532;9.232;2024-01-16T13:32:05;36.20;43.80
40654;DHT22;26344;45.532;9.232;2024-01-16T13:34:31;37.50;44.60
40654;DHT22;26344;45.532;9.232;2024-01-16T13:36:58;36.70;44.00
40654;DHT22;26344;45.532;9.232;2024-01-16T13:39:25;36.30;44.20
40654;DHT22;26344;45.532;9.232;2024-01-16T13:41:50;36.00;44.20
40654;DHT22;26344;45.532;9.232;2024-01-16T13:44:16;36.10;44.10
40654;DHT22;26344;45.532;9.232;2024-01-16T13:46:42;36.10;44.30
40654;DHT22;26344;45.532;9.232;2024-01-16T13:49:07;36.70;45.00
40654;DHT22;26344;45.532;9.232;2024-01-16T13:51:33;37.10;44.50
40654;DHT22;26344;45.532;9.232;2024-01-16T13:53:58;35.70;43.70
40654;DHT22;26344;45.532;9.232;2024-01-16T13:56:24;36.60;44.60
40654;DHT22;26344;45.532;9.232;2024-01-16T13:58:49;36.40;44.70
40654;DHT22;26344;45.532;9.232;2024-01-16T14:01:15;36.20;44.60
40654;DHT22;26344;45.532;9.232;2024-01-16T14:03:41;36.30;44.60
40654;DHT22;26344;45.532;9.232;2024-01-16T14:06:08;36.30;44.60
40654;DHT22;26344;45.532;9.232;2024-01-16T14:08:36;36.50;45.50
40654;DHT22;26344;45.532;9.232;2024-01-16T14:11:02;36.10;44.40
40654;DHT22;26344;45.532;9.232;2024-01-16T14:13:28;38.60;46.80
40654;DHT22;26344;45.532;9.232;2024-01-16T14:15:55;35.70;44.40
40654;DHT22;26344;45.532;9.232;2024-01-16T14:18:20;35.20;45.00
40654;DHT22;26344;45.532;9.232;2024-01-16T14:20:46;33.20;44.90
40654;DHT22;26344;45.532;9.232;2024-01-16T14:23:11;31.20;46.10
40654;DHT22;26344;45.532;9.232;2024-01-16T14:25:37;29.60;46.90
40654;DHT22;26344;45.532;9.232;2024-01-16T14:28:03;27.80;47.30
40654;DHT22;26344;45.532;9.232;2024-01-16T14:30:29;26.70;48.50
40654;DHT22;26344;45.532;9.232;2024-01-16T14:32:55;25.70;49.30
40654;DHT22;26344;45.532;9.232;2024-01-16T14:35:21;24.00;50.00
40654;DHT22;26344;45.532;9.232;2024-01-16T14:37:47;23.70;51.00
40654;DHT22;26344;45.532;9.232;2024-01-16T14:40:13;23.70;52.10
40654;DHT22;26344;45.532;9.232;2024-01-16T14:42:41;23.60;52.80
40654;DHT22;26344;45.532;9.232;2024-01-16T14:45:08;23.20;52.70
40654;DHT22;26344;45.532;9.232;2024-01-16T14:47:34;22.90;52.70
40654;DHT22;26344;45.532;9.232;2024-01-16T14:49:59;22.40;53.20
40654;DHT22;26344;45.532;9.232;2024-01-16T14:52:25;22.00;55.80
40654;DHT22;26344;45.532;9.232;2024-01-16T14:54:50;21.60;54.40
40654;DHT22;26344;45.532;9.232;2024-01-16T14:57:17;21.30;54.40
40654;DHT22;26344;45.532;9.232;2024-01-16T14:59:43;21.00;55.00
40654;DHT22;26344;45.532;9.232;2024-01-16T15:02:10;20.70;56.10
40654;DHT22;26344;45.532;9.232;2024-01-16T15:04:49;20.50;56.10
40654;DHT22;26344;45.532;9.232;2024-01-16T15:07:36;20.00;56.80
40654;DHT22;26344;45.532;9.232;2024-01-16T15:10:04;20.70;59.00
40654;DHT22;26344;45.532;9.232;2024-01-16T15:12:42;19.60;57.40
40654;DHT22;26344;45.532;9.232;2024-01-16T15:15:08;19.00;57.00
40654;DHT22;26344;45.532;9.232;2024-01-16T15:17:35;18.80;58.00
40654;DHT22;26344;45.532;9.232;2024-01-16T15:20:01;18.40;57.90
40654;DHT22;26344;45.532;9.232;2024-01-16T15:22:36;18.20;59.10
40654;DHT22;26344;45.532;9.232;2024-01-16T15:25:02;18.60;59.70
40654;DHT22;26344;45.532;9.232;2024-01-16T15:27:30;17.70;59.30
40654;DHT22;26344;45.532;9.232;2024-01-16T15:29:56;17.50;59.80
40654;DHT22;26344;45.532;9.232;2024-01-16T15:32:23;17.40;61.10
40654;DHT22;26344;45.532;9.232;2024-01-16T15:34:48;17.10;61.50
40654;DHT22;26344;45.532;9.232;2024-01-16T15:37:14;17.10;62.30
40654;DHT22;26344;45.532;9.232;2024-01-16T15:39:39;19.30;64.20
40654;DHT22;26344;45.532;9.232;2024-01-16T15:42:05;16.60;62.50
40654;DHT22;26344;45.532;9.232;2024-01-16T15:44:32;16.50;62.90
40654;DHT22;26344;45.532;9.232;2024-01-16T15:47:02;16.40;63.80
40654;DHT22;26344;45.532;9.232;2024-01-16T15:49:28;16.20;65.00
40654;DHT22;26344;45.532;9.232;2024-01-16T15:51:54;16.10;64.80
40654;DHT22;26344;45.532;9.232;2024-01-16T15:54:20;15.90;65.10
40654;DHT22;26344;45.532;9.232;2024-01-16T15:56:46;15.70;65.40
40654;DHT22;26344;45.532;9.232;2024-01-16T15:59:12;15.70;66.40
40654;DHT22;26344;45.532;9.232;2024-01-16T16:01:38;15.70;66.60
40654;DHT22;26344;45.532;9.232;2024-01-16T16:04:04;15.40;67.30
40654;DHT22;26344;45.532;9.232;2024-01-16T16:06:33;15.80;67.70
40654;DHT22;26344;45.532;9.232;2024-01-16T16:08:58;15.00;68.00